Time;durP1;ratioP1;P1;durP2;ratioP2;P2;SDS_P1;SDS_P2;PMS_P1;PMS_P2;Temp;Humidity;BMP_temperature;BMP_pressure;BME280_temperature;BME280_humidity;BME280_pressure;Samples;Min_cycle;Max_cycle;Signal;HPM_P1;HPM_P2
2021/03/30 00:00:06;;;;;;;18.20;12.18;;;;;;;6.46;64.03;100488.95;1789251;78;20949;-53
2021/03/30 00:02:34;;;;;;;16.60;12.90;;;;;;;6.47;63.98;100489.29;1781603;79;20926;-53
2021/03/30 00:05:01;;;;;;;22.30;14.25;;;;;;;6.47;63.98;100489.29;1781483;79;21068;-53
2021/03/30 00:07:29;;;;;;;15.10;12.53;;;;;;;6.46;64.03;100484.51;1783814;78;21128;-54
2021/03/30 00:09:57;;;;;;;19.57;12.53;;;;;;;6.45;63.96;100484.61;1783066;78;21348;-54
2021/03/30 00:12:25;;;;;;;14.90;11.50;;;;;;;6.41;63.94;100489.31;1782886;78;20990;-55
2021/03/30 00:14:54;;;;;;;17.20;11.75;;;;;;;6.38;63.99;100482.09;1781605;79;21001;-54
2021/03/30 00:17:21;;;;;;;16.75;12.10;;;;;;;6.35;64.01;100484.97;1781796;79;21002;-56
2021/03/30 00:19:49;;;;;;;20.37;11.53;;;;;;;6.32;64.09;100486.05;1794788;78;21160;-56
2021/03/30 00:22:17;;;;;;;18.10;11.40;;;;;;;6.32;64.14;100490.48;1781685;79;21368;-57
2021/03/30 00:24:45;;;;;;;15.63;11.70;;;;;;;6.30;64.11;100485.33;1744225;82;20913;-54
2021/03/30 00:27:13;;;;;;;23.83;13.75;;;;;;;6.29;64.14;100490.72;1756256;80;20971;-57
2021/03/30 00:29:43;;;;;;;22.17;13.93;;;;;;;6.27;64.19;100486.89;1744568;80;21028;-54
2021/03/30 00:32:13;;;;;;;22.87;13.65;;;;;;;6.23;64.23;100488.91;1754665;80;21110;-55
2021/03/30 00:34:40;;;;;;;23.22;14.40;;;;;;;6.23;64.28;100492.06;1751826;81;21213;-54
2021/03/30 00:37:08;;;;;;;17.77;13.18;;;;;;;6.23;64.35;100494.70;1753724;81;21111;-53
2021/03/30 00:39:36;;;;;;;22.48;13.48;;;;;;;6.25;64.33;100495.89;1754104;81;21135;-53
2021/03/30 00:42:06;;;;;;;19.60;12.55;;;;;;;6.28;64.30;100496.98;1753096;81;21134;-56
2021/03/30 00:44:33;;;;;;;18.27;12.25;;;;;;;6.29;64.28;100496.00;1754962;81;21186;-54
2021/03/30 00:47:02;;;;;;;18.32;12.20;;;;;;;6.29;64.23;100484.96;1750710;81;21342;-54
2021/03/30 00:49:32;;;;;;;20.17;10.63;;;;;;;6.30;64.25;100487.13;1723083;82;21036;-54
2021/03/30 00:51:59;;;;;;;15.88;10.25;;;;;;;6.30;64.27;100482.69;1753463;81;21001;-54
2021/03/30 00:54:47;;;;;;;19.10;10.63;;;;;;;6.33;64.21;100477.17;1721903;82;21175;-54
2021/03/30 00:57:15;;;;;;;15.35;10.48;;;;;;;6.33;64.17;100482.45;1756235;81;21081;-54
2021/03/30 00:59:43;;;;;;;18.02;9.95;;;;;;;6.31;64.23;100478.25;1748499;82;22129;-54
2021/03/30 01:02:11;;;;;;;20.27;9.45;;;;;;;6.30;64.36;100481.84;1748483;81;21156;-55
2021/03/30 01:04:38;;;;;;;13.53;9.70;;;;;;;6.26;64.45;100476.45;1744324;81;21115;-55
2021/03/30 01:07:07;;;;;;;14.35;9.03;;;;;;;6.26;64.50;100480.41;1742202;81;21184;-54
2021/03/30 01:10:23;;;;;;;10.88;9.08;;;;;;;6.25;64.47;100482.20;1748535;81;21237;-54
2021/03/30 01:13:37;;;;;;;11.45;9.03;;;;;;;6.25;64.47;100486.65;1753838;81;21044;-53
2021/03/30 01:16:15;;;;;;;9.25;7.92;;;;;;;6.26;64.49;100486.52;1739010;81;21064;-55
2021/03/30 01:19:10;;;;;;;11.57;9.13;;;;;;;6.28;64.49;100475.84;1742685;82;21009;-55
2021/03/30 01:22:04;;;;;;;12.33;9.13;;;;;;;6.30;64.44;100477.87;1730545;81;21158;-54
2021/03/30 01:24:36;;;;;;;9.63;8.03;;;;;;;6.30;64.44;100481.84;1749302;82;21183;-56
2021/03/30 01:27:09;;;;;;;13.93;8.80;;;;;;;6.29;64.36;100482.31;1722940;83;21410;-54
2021/03/30 01:29:45;;;;;;;8.88;7.60;;;;;;;6.31;64.33;100475.61;1722978;82;21154;-54
2021/03/30 01:32:37;;;;;;;10.60;8.03;;;;;;;6.35;64.20;100474.40;1737400;81;21105;-54
2021/03/30 01:35:12;;;;;;;11.70;7.95;;;;;;;6.38;64.14;100479.45;1797503;78;21156;-53
2021/03/30 01:37:45;;;;;;;10.55;7.97;;;;;;;6.37;64.24;100476.44;1796839;78;21112;-54
2021/03/30 01:40:17;;;;;;;8.50;6.83;;;;;;;6.37;64.20;100473.79;1799168;79;21609;-55
2021/03/30 01:42:46;;;;;;;8.10;7.28;;;;;;;6.40;64.17;100473.55;1787297;79;21535;-56
2021/03/30 01:45:18;;;;;;;8.80;7.35;;;;;;;6.43;64.10;100477.28;1767313;78;21728;-54
2021/03/30 01:47:45;;;;;;;8.95;7.42;;;;;;;6.47;63.99;100472.11;1800037;78;21132;-54
2021/03/30 01:50:14;;;;;;;9.50;7.15;;;;;;;6.49;63.95;100466.24;1788012;78;20930;-56
2021/03/30 01:52:42;;;;;;;14.00;7.95;;;;;;;6.52;63.82;100465.50;1787925;80;21201;-56
2021/03/30 01:55:12;;;;;;;9.23;7.50;;;;;;;6.56;63.69;100470.92;1808923;78;21013;-54
2021/03/30 01:57:40;;;;;;;10.30;7.67;;;;;;;6.59;63.58;100469.84;1793842;78;21009;-55
2021/03/30 02:00:09;;;;;;;10.48;7.80;;;;;;;6.60;63.48;100467.53;1787780;78;21581;-56
2021/03/30 02:02:42;;;;;;;10.10;7.78;;;;;;;6.63;63.31;100469.47;1788119;79;20985;-56
2021/03/30 02:05:11;;;;;;;9.93;7.62;;;;;;;6.64;63.23;100467.67;1788333;78;21199;-55
2021/03/30 02:07:41;;;;;;;9.30;7.30;;;;;;;6.64;63.12;100463.23;1788442;78;21222;-55
2021/03/30 02:10:20;;;;;;;8.73;7.25;;;;;;;6.65;63.08;100465.37;1787599;79;21614;-55
2021/03/30 02:12:45;;;;;;;9.23;7.17;;;;;;;6.64;63.02;100458.42;1786521;80;21108;-56
2021/03/30 02:15:15;;;;;;;8.60;6.62;;;;;;;6.65;62.97;100460.08;1784175;78;21106;-54
2021/03/30 02:18:06;;;;;;;9.40;7.33;;;;;;;6.63;62.98;100461.53;1791785;78;21530;-55
2021/03/30 02:20:44;;;;;;;10.40;6.65;;;;;;;6.65;62.93;100457.44;1787518;78;21172;-56
2021/03/30 02:23:17;;;;;;;10.60;7.65;;;;;;;6.63;62.94;100457.57;1751790;80;21159;-54
2021/03/30 02:25:49;;;;;;;9.28;7.12;;;;;;;6.62;62.91;100457.70;1753715;80;21092;-55
2021/03/30 02:28:18;;;;;;;9.68;7.47;;;;;;;6.61;62.89;100457.33;1787325;80;21491;-55
2021/03/30 02:30:46;;;;;;;8.23;6.75;;;;;;;6.63;62.87;100462.02;1786937;79;21374;-56
2021/03/30 02:33:18;;;;;;;9.60;6.97;;;;;;;6.66;62.78;100456.48;1782002;79;20962;-54
2021/03/30 02:35:46;;;;;;;7.70;7.00;;;;;;;6.68;62.69;100453.23;1780385;79;21131;-55
2021/03/30 02:38:14;;;;;;;8.10;7.30;;;;;;;6.68;62.61;100452.75;1770861;80;21049;-54
2021/03/30 02:40:41;;;;;;;10.08;7.85;;;;;;;6.68;62.62;100451.91;1782268;79;21061;-54
2021/03/30 02:43:10;;;;;;;8.68;7.35;;;;;;;6.68;62.44;100455.40;1781438;79;21343;-54
2021/03/30 02:45:38;;;;;;;8.53;7.53;;;;;;;6.71;62.38;100453.84;1781398;79;21008;-54
2021/03/30 02:48:10;;;;;;;9.20;7.47;;;;;;;6.74;62.29;100452.27;1795998;79;20970;-55
2021/03/30 02:50:37;;;;;;;8.63;7.30;;;;;;;6.76;62.23;100461.39;1781554;79;21609;-54
2021/03/30 02:53:05;;;;;;;10.20;7.72;;;;;;;6.76;62.22;100452.14;1774180;79;20937;-55
2021/03/30 02:55:33;;;;;;;8.68;7.87;;;;;;;6.75;62.21;100455.77;1769534;79;21382;-56
2021/03/30 02:58:03;;;;;;;11.18;8.63;;;;;;;6.76;62.04;100458.75;1773974;79;21257;-54
2021/03/30 03:00:31;;;;;;;10.20;8.80;;;;;;;6.76;62.07;100457.43;1781814;79;21152;-53
2021/03/30 03:03:00;;;;;;;11.60;7.92;;;;;;;6.78;62.05;100455.50;1781385;79;20993;-53
2021/03/30 03:05:27;;;;;;;9.60;8.30;;;;;;;6.79;62.06;100451.90;1781549;79;21160;-55
2021/03/30 03:07:55;;;;;;;10.43;8.65;;;;;;;6.82;61.97;100452.50;1781620;79;21380;-54
2021/03/30 03:10:24;;;;;;;9.70;8.75;;;;;;;6.82;61.91;100450.34;1781498;79;21026;-56
2021/03/30 03:12:52;;;;;;;9.75;8.75;;;;;;;6.83;61.91;100455.97;1770141;79;21116;-54
2021/03/30 03:15:20;;;;;;;10.25;8.38;;;;;;;6.83;61.92;100450.20;1773122;79;21111;-54
2021/03/30 03:17:49;;;;;;;12.23;8.78;;;;;;;6.86;61.84;100450.95;1763726;78;21107;-56
2021/03/30 03:20:17;;;;;;;8.88;7.97;;;;;;;6.89;61.81;100444.91;1795049;78;21244;-53
2021/03/30 03:22:44;;;;;;;10.75;9.33;;;;;;;6.91;61.79;100448.77;1778619;79;21096;-53
2021/03/30 03:25:13;;;;;;;10.18;8.33;;;;;;;6.91;61.58;100442.97;1777726;79;21048;-56
2021/03/30 03:27:46;;;;;;;9.18;8.28;;;;;;;6.92;61.56;100441.17;1783336;79;21100;-54
2021/03/30 03:30:16;;;;;;;10.70;9.28;;;;;;;6.92;61.57;100438.05;1777773;79;21120;-53
2021/03/30 03:32:43;;;;;;;10.68;8.75;;;;;;;6.92;61.56;100434.55;1759858;79;22290;-56
2021/03/30 03:35:14;;;;;;;12.68;8.78;;;;;;;6.92;61.62;100435.88;1758585;80;21119;-56
2021/03/30 03:37:45;;;;;;;9.93;8.63;;;;;;;6.91;61.67;100440.83;1761360;80;20934;-54
2021/03/30 03:40:14;;;;;;;11.88;9.45;;;;;;;6.87;61.79;100434.94;1755194;80;21054;-56
2021/03/30 03:42:43;;;;;;;15.00;9.93;;;;;;;6.87;61.93;100438.05;1758249;80;21055;-58
2021/03/30 03:45:12;;;;;;;11.10;8.80;;;;;;;6.86;62.02;100434.56;1757836;80;21408;-54
2021/03/30 03:47:40;;;;;;;10.28;8.55;;;;;;;6.83;62.09;100433.48;1758856;80;21193;-54
2021/03/30 03:50:09;;;;;;;10.85;8.80;;;;;;;6.79;62.22;100430.27;1759450;80;21139;-54
2021/03/30 03:52:42;;;;;;;11.57;9.98;;;;;;;6.78;62.35;100426.41;1757827;80;21151;-56
2021/03/30 03:55:12;;;;;;;14.50;9.63;;;;;;;6.78;62.46;100431.69;1757473;80;21041;-54
2021/03/30 03:57:55;;;;;;;10.28;9.28;;;;;;;6.77;62.53;100432.20;1761841;79;21380;-55
2021/03/30 04:00:23;;;;;;;13.55;10.43;;;;;;;6.77;62.52;100432.20;1759118;80;20977;-55
2021/03/30 04:03:28;;;;;;;14.07;10.85;;;;;;;6.79;62.54;100432.91;1753161;80;21164;-54
2021/03/30 04:06:15;;;;;;;18.20;12.75;;;;;;;6.82;62.54;100436.64;1717428;82;20929;-56
2021/03/30 04:08:47;;;;;;;18.20;12.88;;;;;;;6.84;62.55;100439.14;1711536;82;21108;-56
2021/03/30 04:11:14;;;;;;;17.67;14.15;;;;;;;6.89;62.56;100442.25;1718260;82;22340;-54
2021/03/30 04:13:41;;;;;;;22.20;14.28;;;;;;;6.92;62.50;100444.66;1716416;82;20989;-53
2021/03/30 04:16:09;;;;;;;24.40;13.93;;;;;;;6.95;62.42;100433.84;1710559;82;21156;-53
2021/03/30 04:18:41;;;;;;;16.70;12.47;;;;;;;6.97;62.40;100440.31;1689489;82;21206;-53
2021/03/30 04:21:14;;;;;;;19.10;12.98;;;;;;;6.97;62.44;100439.84;1758748;80;21123;-54
2021/03/30 04:23:44;;;;;;;15.93;12.53;;;;;;;6.98;62.42;100440.69;1719009;82;21364;-55
2021/03/30 04:26:13;;;;;;;20.43;12.68;;;;;;;7.00;62.46;100443.56;1714890;82;21092;-55
2021/03/30 04:28:40;;;;;;;15.85;12.43;;;;;;;6.99;62.49;100445.84;1718172;82;21148;-55
2021/03/30 04:31:09;;;;;;;18.35;13.15;;;;;;;6.98;62.55;100442.85;1685238;83;21040;-55
2021/03/30 04:33:37;;;;;;;22.50;14.78;;;;;;;7.00;62.58;100450.66;1722993;81;21211;-55
2021/03/30 04:36:08;;;;;;;17.32;12.63;;;;;;;6.99;62.66;100452.96;1726798;81;21216;-53
2021/03/30 04:38:35;;;;;;;15.70;11.95;;;;;;;6.98;62.71;100460.05;1725423;81;21120;-54
2021/03/30 04:41:06;;;;;;;15.88;13.35;;;;;;;6.98;62.78;100463.17;1747698;81;21081;-54
2021/03/30 04:43:34;;;;;;;15.25;12.58;;;;;;;6.99;62.79;100463.03;1732533;81;20946;-54
2021/03/30 04:46:02;;;;;;;14.78;11.88;;;;;;;7.02;62.76;100453.53;1728928;82;21179;-56
2021/03/30 04:48:29;;;;;;;13.90;12.45;;;;;;;7.03;62.75;100447.28;1756689;80;21266;-54
2021/03/30 04:50:57;;;;;;;19.77;12.75;;;;;;;7.04;62.88;100441.52;1789210;79;21226;-57
2021/03/30 04:53:27;;;;;;;21.07;15.15;;;;;;;7.04;62.90;100452.91;1762406;80;21558;-56
2021/03/30 04:55:54;;;;;;;24.63;15.83;;;;;;;7.07;62.90;100452.67;1771127;79;20991;-53
2021/03/30 04:58:22;;;;;;;24.37;17.37;;;;;;;7.06;62.95;100447.52;1747253;81;21135;-54
2021/03/30 05:00:50;;;;;;;21.12;15.53;;;;;;;7.08;62.98;100454.37;1727579;81;21384;-53
2021/03/30 05:03:18;;;;;;;20.00;16.07;;;;;;;7.08;63.03;100456.16;1719830;81;21235;-55
2021/03/30 05:05:46;;;;;;;22.32;16.07;;;;;;;7.11;63.08;100458.56;1736023;81;21016;-56
2021/03/30 05:08:14;;;;;;;21.87;15.25;;;;;;;7.14;63.12;100459.65;1721044;81;21573;-55
2021/03/30 05:10:41;;;;;;;21.97;16.27;;;;;;;7.16;63.13;100457.23;1769895;79;21096;-55
2021/03/30 05:13:09;;;;;;;23.73;16.62;;;;;;;7.19;63.01;100455.66;1746569;80;21377;-55
2021/03/30 05:15:37;;;;;;;28.85;16.02;;;;;;;7.19;63.04;100451.70;1785292;78;21126;-55
2021/03/30 05:18:04;;;;;;;21.73;16.50;;;;;;;7.20;63.05;100450.71;1792859;78;21107;-55
2021/03/30 05:20:32;;;;;;;25.02;17.02;;;;;;;7.18;63.13;100449.16;1791131;78;21179;-54
2021/03/30 05:22:59;;;;;;;20.62;16.48;;;;;;;7.20;63.23;100452.03;1782314;79;21140;-55
2021/03/30 05:25:27;;;;;;;22.75;16.57;;;;;;;7.26;63.09;100452.86;1786426;79;21646;-55
2021/03/30 05:27:55;;;;;;;28.23;17.23;;;;;;;7.33;62.90;100453.19;1787911;79;21009;-57
2021/03/30 05:30:24;;;;;;;25.20;16.60;;;;;;;7.42;62.82;100457.27;1789945;79;20937;-54
2021/03/30 05:32:51;;;;;;;23.47;17.45;;;;;;;7.53;62.68;100456.38;1733158;81;21124;-54
2021/03/30 05:35:18;;;;;;;32.33;17.87;;;;;;;7.67;62.45;100459.17;1719455;82;21617;-54
2021/03/30 05:37:46;;;;;;;19.98;15.72;;;;;;;7.83;62.18;100457.77;1778866;79;21265;-56
2021/03/30 05:40:16;;;;;;;22.27;14.80;;;;;;;8.00;61.66;100457.17;1756959;79;20938;-57
2021/03/30 05:42:45;;;;;;;20.60;15.03;;;;;;;8.21;61.23;100461.16;1721157;82;21190;-55
2021/03/30 05:45:15;;;;;;;17.27;13.40;;;;;;;8.47;60.75;100450.97;1749101;80;21129;-56
2021/03/30 05:47:42;;;;;;;21.27;13.78;;;;;;;8.81;60.15;100455.01;1743000;81;20938;-59
2021/03/30 05:50:14;;;;;;;20.75;15.58;;;;;;;9.13;59.14;100458.75;1747661;81;21368;-54
2021/03/30 05:55:25;;;;;;;23.55;16.75;;;;;;;9.50;57.73;100453.61;1748393;80;21192;-54
2021/03/30 05:57:54;;;;;;;29.50;17.90;;;;;;;9.57;57.06;100458.22;1759493;80;21685;-54
2021/03/30 06:00:30;;;;;;;35.13;18.12;;;;;;;9.54;56.94;100451.86;1780471;78;21123;-55
2021/03/30 06:03:01;;;;;;;29.00;19.25;;;;;;;9.52;56.71;100447.66;1783682;79;21677;-54
2021/03/30 06:05:29;;;;;;;36.90;20.65;;;;;;;9.49;56.69;100451.44;1745988;81;21148;-55
2021/03/30 06:07:59;;;;;;;37.83;24.32;;;;;;;9.43;56.81;100453.83;1762951;80;21206;-56
2021/03/30 06:10:28;;;;;;;27.80;17.15;;;;;;;9.38;57.03;100451.60;1717142;82;22446;-59
2021/03/30 06:13:00;;;;;;;38.63;16.82;;;;;;;9.31;57.03;100448.64;1751827;81;21153;-54
2021/03/30 06:15:34;;;;;;;18.95;16.12;;;;;;;9.20;57.37;100440.80;1746840;81;22172;-54
2021/03/30 06:18:18;;;;;;;19.90;14.85;;;;;;;9.16;57.79;100442.55;1747550;80;21669;-55
2021/03/30 06:20:46;;;;;;;17.02;13.90;;;;;;;9.16;57.94;100451.36;1741996;80;21535;-55
2021/03/30 06:23:26;;;;;;;22.60;15.10;;;;;;;9.17;57.81;100446.41;1739423;82;21011;-55
2021/03/30 06:25:55;;;;;;;25.10;16.77;;;;;;;9.16;57.82;100447.37;1682991;82;21190;-56
2021/03/30 06:28:28;;;;;;;25.82;14.80;;;;;;;9.17;57.89;100445.09;1775530;79;21201;-54
2021/03/30 06:31:14;;;;;;;22.17;14.87;;;;;;;9.24;57.80;100448.02;1778198;79;21632;-57
2021/03/30 06:33:54;;;;;;;21.82;16.62;;;;;;;9.33;57.67;100445.87;1787045;79;21171;-54
2021/03/30 06:36:25;;;;;;;18.73;16.00;;;;;;;9.41;57.46;100447.83;1762318;79;21191;-54
2021/03/30 06:39:07;;;;;;;22.52;17.10;;;;;;;9.41;57.52;100443.33;1744402;81;21064;-54
2021/03/30 06:41:53;;;;;;;27.77;17.35;;;;;;;9.45;57.48;100439.43;1710938;82;21374;-57
2021/03/30 06:47:02;;;;;;;26.00;19.02;;;;;;;9.53;57.56;100450.20;1783515;79;21163;-54
2021/03/30 06:49:33;;;;;;;20.55;15.10;;;;;;;9.54;57.38;100447.06;1778045;79;21164;-54
2021/03/30 06:52:15;;;;;;;19.67;15.20;;;;;;;9.59;57.27;100452.78;1781198;79;21570;-56
2021/03/30 06:54:54;;;;;;;17.00;13.80;;;;;;;9.62;57.06;100450.66;1772100;79;21565;-54
2021/03/30 06:57:46;;;;;;;18.75;13.68;;;;;;;9.70;56.92;100453.94;1783096;79;21198;-54
2021/03/30 07:00:30;;;;;;;18.32;14.53;;;;;;;9.75;56.92;100452.55;1771649;79;21135;-56
2021/03/30 07:03:03;;;;;;;26.73;15.65;;;;;;;9.81;56.81;100454.64;1804844;78;21178;-55
2021/03/30 07:05:40;;;;;;;19.77;14.33;;;;;;;9.84;56.79;100459.68;1790809;79;21186;-57
2021/03/30 07:08:13;;;;;;;21.85;14.75;;;;;;;9.87;56.76;100458.56;1791605;78;21471;-56
2021/03/30 07:10:46;;;;;;;21.25;14.95;;;;;;;9.86;56.85;100461.70;1771632;79;20976;-60
2021/03/30 07:13:17;;;;;;;20.52;16.55;;;;;;;9.90;56.77;100460.45;1747471;81;21707;-59
2021/03/30 07:15:46;;;;;;;20.80;14.90;;;;;;;9.97;56.88;100461.19;1747487;80;21140;-56
2021/03/30 07:18:37;;;;;;;22.07;17.20;;;;;;;10.06;56.96;100463.01;1745731;80;21092;-55
2021/03/30 07:21:26;;;;;;;18.45;14.73;;;;;;;10.10;56.72;100460.39;1714069;81;21385;-55
2021/03/30 07:23:56;;;;;;;26.42;13.93;;;;;;;10.11;56.59;100460.27;1718508;81;20955;-55
2021/03/30 07:26:44;;;;;;;23.50;15.93;;;;;;;10.17;56.52;100468.17;1745597;81;20958;-55
2021/03/30 07:29:30;;;;;;;19.62;15.55;;;;;;;10.26;56.49;100473.48;1751087;81;21115;-55
2021/03/30 07:32:18;;;;;;;18.63;15.03;;;;;;;10.33;56.41;100471.06;1751535;81;21107;-57
2021/03/30 07:35:16;;;;;;;23.25;17.62;;;;;;;10.33;56.48;100469.25;1765668;80;21423;-54
2021/03/30 07:38:14;;;;;;;22.75;15.32;;;;;;;10.28;56.72;100468.84;1784148;80;20886;-55
2021/03/30 07:40:42;;;;;;;19.25;14.78;;;;;;;10.33;56.71;100475.90;1742715;81;21131;-55
2021/03/30 07:43:14;;;;;;;16.95;15.13;;;;;;;10.43;56.71;100472.72;1742886;82;21029;-53
2021/03/30 07:45:43;;;;;;;20.40;15.20;;;;;;;10.54;56.61;100471.21;1713154;83;21209;-54
2021/03/30 07:48:15;;;;;;;16.05;14.45;;;;;;;10.64;56.54;100472.48;1782615;80;22247;-54
2021/03/30 07:51:01;;;;;;;20.50;14.28;;;;;;;10.75;56.47;100474.13;1782336;79;21195;-54
2021/03/30 07:53:57;;;;;;;19.98;13.40;;;;;;;10.88;56.29;100482.13;1782072;80;21252;-56
2021/03/30 07:56:41;;;;;;;14.98;13.38;;;;;;;11.03;56.05;100473.97;1782398;79;21228;-55
2021/03/30 07:59:09;;;;;;;19.10;13.93;;;;;;;11.20;55.88;100474.16;1782494;80;21132;-55
2021/03/30 08:01:37;;;;;;;21.45;15.28;;;;;;;11.35;55.66;100474.82;1782654;79;21377;-55
2021/03/30 08:04:05;;;;;;;15.93;13.98;;;;;;;11.49;55.44;100472.97;1744294;82;21150;-57
2021/03/30 08:06:49;;;;;;;17.12;13.68;;;;;;;11.60;55.42;100471.91;1744053;82;21184;-54
2021/03/30 08:11:57;;;;;;;14.35;12.85;;;;;;;11.93;55.21;100476.55;1822769;78;22896;-56
2021/03/30 08:14:36;;;;;;;17.20;12.43;;;;;;;12.04;55.07;100468.80;1783961;79;20986;-59
2021/03/30 08:17:15;;;;;;;14.53;12.95;;;;;;;12.20;54.98;100481.73;1786699;79;20970;-57
2021/03/30 08:19:55;;;;;;;15.15;12.85;;;;;;;12.38;54.62;100479.84;1786910;79;21211;-56
2021/03/30 08:22:22;;;;;;;18.82;13.53;;;;;;;12.57;54.31;100478.78;1784405;77;21096;-58
2021/03/30 08:24:54;;;;;;;14.38;12.60;;;;;;;12.75;53.98;100475.53;1740150;79;21017;-55
2021/03/30 08:27:37;;;;;;;14.25;11.95;;;;;;;12.88;53.87;100480.42;1780760;79;20899;-55
2021/03/30 08:30:32;;;;;;;14.05;12.63;;;;;;;13.03;53.75;100474.83;1784682;79;21091;-57
2021/03/30 08:32:59;;;;;;;13.38;12.03;;;;;;;13.18;53.47;100466.55;1774795;79;21088;-54
2021/03/30 08:35:35;;;;;;;19.15;12.80;;;;;;;13.37;53.23;100470.28;1748692;79;21060;-55
2021/03/30 08:38:03;;;;;;;16.25;13.40;;;;;;;13.53;52.88;100462.26;1798301;79;21128;-57
2021/03/30 08:40:41;;;;;;;18.70;13.93;;;;;;;13.68;52.81;100468.30;1788899;79;21175;-55
2021/03/30 08:43:20;;;;;;;14.25;12.25;;;;;;;13.84;52.59;100466.48;1776777;79;21048;-55
2021/03/30 08:46:09;;;;;;;13.28;11.93;;;;;;;13.98;52.25;100467.62;1792751;79;21112;-56
2021/03/30 08:48:49;;;;;;;12.88;11.57;;;;;;;14.11;51.98;100469.28;1791059;79;21120;-57
2021/03/30 08:51:20;;;;;;;12.05;10.88;;;;;;;14.27;51.70;100481.80;1776667;77;21049;-55
2021/03/30 08:53:47;;;;;;;15.55;11.57;;;;;;;14.42;51.55;100470.75;1785092;78;21131;-55
2021/03/30 08:56:26;;;;;;;15.90;10.80;;;;;;;14.61;51.11;100465.86;1780970;79;21349;-58
2021/03/30 08:58:57;;;;;;;11.90;10.78;;;;;;;14.84;50.98;100470.80;1753454;79;21203;-56
2021/03/30 09:01:25;;;;;;;13.75;10.40;;;;;;;15.15;50.04;100464.11;1776858;79;21017;-55
2021/03/30 09:03:54;;;;;;;13.78;11.83;;;;;;;15.33;49.66;100461.15;1797554;79;20961;-57
2021/03/30 09:06:39;;;;;;;14.75;12.60;;;;;;;15.35;48.96;100472.56;1778391;79;20953;-55
2021/03/30 09:09:23;;;;;;;12.58;10.82;;;;;;;15.26;49.31;100464.22;1805260;77;21467;-56
2021/03/30 09:11:51;;;;;;;14.28;10.90;;;;;;;15.41;49.04;100466.46;1789495;79;21589;-56
2021/03/30 09:14:21;;;;;;;12.75;11.45;;;;;;;15.59;48.85;100459.53;1813160;77;21136;-55
2021/03/30 09:16:51;;;;;;;11.73;10.50;;;;;;;15.75;48.65;100466.08;1792171;77;21550;-56
2021/03/30 09:19:40;;;;;;;12.65;10.03;;;;;;;15.90;48.48;100465.11;1793550;79;21104;-53
2021/03/30 09:22:02;;;;;;;16.27;11.78;;;;;;;16.02;48.20;100470.39;1808625;77;21525;-54
2021/03/30 09:27:02;;;;;;;17.42;13.03;;;;;;;16.08;47.99;100469.64;1790513;79;21578;-55
2021/03/30 09:29:35;;;;;;;19.40;13.28;;;;;;;16.10;47.67;100468.14;1782387;77;21207;-55
2021/03/30 09:32:08;;;;;;;14.75;10.28;;;;;;;16.06;47.78;100470.34;1784055;77;21160;-57
2021/03/30 09:34:42;;;;;;;14.23;11.43;;;;;;;16.06;47.62;100464.14;1784494;79;21235;-56
2021/03/30 09:37:10;;;;;;;11.13;9.23;;;;;;;15.98;47.67;100465.05;1798202;79;21104;-55
2021/03/30 09:39:38;;;;;;;10.68;7.87;;;;;;;15.94;47.76;100471.80;1789914;79;21155;-56
2021/03/30 09:42:07;;;;;;;12.45;7.53;;;;;;;15.95;47.60;100469.46;1783567;79;21058;-54
2021/03/30 09:44:43;;;;;;;12.33;7.53;;;;;;;15.85;47.50;100463.48;1783683;77;21122;-56
2021/03/30 09:47:14;;;;;;;11.33;8.05;;;;;;;15.74;47.66;100469.80;1800786;79;21358;-56
2021/03/30 09:49:43;;;;;;;11.12;7.70;;;;;;;15.62;47.91;100461.82;1783971;78;20969;-55
2021/03/30 09:52:13;;;;;;;16.85;10.00;;;;;;;15.54;48.36;100460.57;1791710;78;20918;-56
2021/03/30 09:54:43;;;;;;;13.55;8.45;;;;;;;15.40;48.58;100458.95;1792402;79;21561;-57
2021/03/30 09:57:26;;;;;;;20.30;8.38;;;;;;;15.31;48.99;100465.86;1798048;77;20977;-55
2021/03/30 09:59:53;;;;;;;10.08;7.83;;;;;;;15.25;49.08;100462.03;1789572;79;21370;-55
2021/03/30 10:02:27;;;;;;;12.78;8.18;;;;;;;15.22;49.20;100449.52;1789804;79;21026;-55
2021/03/30 10:04:57;;;;;;;14.00;8.45;;;;;;;15.18;49.51;100451.70;1770305;79;21072;-54
2021/03/30 10:07:34;;;;;;;11.43;8.33;;;;;;;15.19;49.41;100453.38;1792874;79;21175;-55
2021/03/30 10:10:11;;;;;;;16.32;7.60;;;;;;;15.23;49.50;100450.66;1803144;79;21040;-56
2021/03/30 10:12:57;;;;;;;8.08;6.90;;;;;;;15.27;49.47;100452.50;1795498;79;21593;-55
2021/03/30 10:15:37;;;;;;;10.40;7.58;;;;;;;15.32;49.35;100448.27;1797292;79;21068;-56
2021/03/30 10:18:05;;;;;;;11.68;7.92;;;;;;;15.33;49.33;100449.09;1762895;80;21583;-55
2021/03/30 10:20:44;;;;;;;8.10;6.50;;;;;;;15.34;49.37;100446.25;1799449;79;21021;-57
2021/03/30 10:23:23;;;;;;;19.15;7.70;;;;;;;15.31;49.51;100441.23;1784944;77;20980;-57
2021/03/30 10:25:53;;;;;;;12.00;8.00;;;;;;;15.39;49.71;100439.00;1792510;79;21060;-56
2021/03/30 10:28:31;;;;;;;12.07;8.08;;;;;;;15.50;49.45;100433.27;1796871;79;21135;-57
2021/03/30 10:31:05;;;;;;;9.13;7.17;;;;;;;15.58;49.20;100435.89;1787208;77;21107;-56
2021/03/30 10:33:48;;;;;;;9.30;6.08;;;;;;;15.61;49.01;100432.85;1811978;78;21124;-55
2021/03/30 10:36:14;;;;;;;7.75;6.62;;;;;;;15.60;48.97;100427.15;1805275;79;21147;-56
2021/03/30 10:39:02;;;;;;;7.95;6.90;;;;;;;15.61;48.72;100423.47;1814412;79;21104;-55
2021/03/30 10:41:36;;;;;;;9.23;6.62;;;;;;;15.61;48.58;100423.97;1786762;78;21183;-55
2021/03/30 10:44:06;;;;;;;10.75;6.10;;;;;;;15.61;48.54;100423.97;1794608;78;21079;-55
2021/03/30 10:46:47;;;;;;;7.85;6.08;;;;;;;15.60;48.57;100423.13;1786945;77;21623;-56
2021/03/30 10:49:15;;;;;;;10.43;6.62;;;;;;;15.66;48.54;100422.92;1793140;79;21087;-57
2021/03/30 10:51:45;;;;;;;9.20;7.70;;;;;;;15.68;48.56;100423.56;1786584;77;21361;-55
2021/03/30 10:54:15;;;;;;;9.75;7.25;;;;;;;15.71;48.49;100428.58;1789673;77;20958;-56
2021/03/30 10:56:43;;;;;;;9.15;7.25;;;;;;;15.73;48.38;100424.70;1786138;77;21119;-56
2021/03/30 10:59:15;;;;;;;8.43;6.80;;;;;;;15.75;48.35;100419.97;1793005;79;21171;-56
2021/03/30 11:01:43;;;;;;;8.33;6.17;;;;;;;15.73;48.33;100419.33;1782443;77;21549;-58
2021/03/30 11:04:10;;;;;;;7.45;6.35;;;;;;;15.68;48.51;100415.02;1795102;79;21261;-57
2021/03/30 11:06:37;;;;;;;8.43;6.35;;;;;;;15.71;48.48;100414.66;1800300;77;21122;-54
2021/03/30 11:09:08;;;;;;;9.03;6.28;;;;;;;15.76;48.45;100414.95;1789708;79;21542;-55
2021/03/30 11:11:36;;;;;;;10.53;6.45;;;;;;;15.85;48.39;100409.82;1779589;79;21005;-55
2021/03/30 11:14:05;;;;;;;13.25;6.40;;;;;;;15.92;48.55;100416.15;1772857;79;21066;-54
2021/03/30 11:16:33;;;;;;;7.10;6.22;;;;;;;16.02;48.23;100411.86;1780671;78;21363;-54
2021/03/30 11:19:00;;;;;;;7.03;5.75;;;;;;;16.07;47.74;100409.45;1780700;79;21176;-54
2021/03/30 11:21:29;;;;;;;7.28;5.75;;;;;;;16.06;47.65;100406.43;1773534;79;20982;-56
2021/03/30 11:24:01;;;;;;;9.35;5.87;;;;;;;16.08;47.76;100398.22;1777580;79;20982;-55
2021/03/30 11:26:28;;;;;;;8.60;5.75;;;;;;;16.11;47.98;100399.20;1772332;79;21125;-57
2021/03/30 11:28:57;;;;;;;6.03;5.03;;;;;;;16.14;47.70;100402.33;1765538;79;21192;-55
2021/03/30 11:31:43;;;;;;;6.08;5.30;;;;;;;16.15;47.34;100394.61;1774291;78;21148;-54
2021/03/30 11:34:10;;;;;;;7.35;5.30;;;;;;;16.12;47.29;100386.08;1778774;79;21013;-56
2021/03/30 11:36:28;;;;;;;7.35;5.12;;;;;;;16.04;47.46;100382.47;1777397;78;21127;-54
2021/03/30 11:38:55;;;;;;;9.05;5.67;;;;;;;16.06;47.42;100376.41;1774446;79;21148;-54
2021/03/30 11:41:23;;;;;;;6.85;5.12;;;;;;;16.09;47.39;100369.83;1773811;79;21293;-55
2021/03/30 11:43:50;;;;;;;8.73;5.85;;;;;;;16.17;47.25;100366.23;1778723;78;21105;-55
2021/03/30 11:46:18;;;;;;;8.15;5.22;;;;;;;16.23;47.15;100368.18;1771244;78;21013;-54
2021/03/30 11:48:45;;;;;;;7.40;5.40;;;;;;;16.25;46.90;100368.82;1779475;79;21081;-56
2021/03/30 11:51:13;;;;;;;12.88;7.00;;;;;;;16.28;46.87;100365.77;1765359;78;21192;-56
2021/03/30 11:53:44;;;;;;;8.20;5.65;;;;;;;16.31;46.80;100360.88;1765636;79;21349;-55